createdAt,value
2023-04-14T00:01:52.045Z,74.63
2023-04-14T00:04:21.762Z,74.92
2023-04-14T00:06:48.347Z,74.96
2023-04-14T00:09:15.790Z,76.28
2023-04-14T00:11:42.547Z,76.33
2023-04-14T00:14:08.924Z,76.91
2023-04-14T00:16:35.613Z,76.70
2023-04-14T00:19:02.585Z,76.07
2023-04-14T00:21:30.629Z,75.37
2023-04-14T00:23:57.203Z,75.32
2023-04-14T00:26:23.912Z,75.07
2023-04-14T00:28:50.401Z,75.00
2023-04-14T00:31:17.981Z,74.74
2023-04-14T00:33:44.688Z,74.97
2023-04-14T00:36:11.464Z,75.09
2023-04-14T00:38:38.114Z,75.11
2023-04-14T00:41:04.576Z,75.72
2023-04-14T00:43:31.079Z,75.54
2023-04-14T00:46:00.669Z,74.85
2023-04-14T00:48:27.144Z,74.28
2023-04-14T00:50:53.844Z,74.04
2023-04-14T00:53:20.388Z,74.33
2023-04-14T00:55:46.855Z,73.90
2023-04-14T00:58:13.466Z,73.75
2023-04-14T01:00:40.290Z,73.63
2023-04-14T01:03:07.493Z,73.82
2023-04-14T01:05:34.359Z,74.36
2023-04-14T01:08:02.267Z,74.81
2023-04-14T01:10:29.101Z,75.11
2023-04-14T01:12:55.634Z,74.88
2023-04-14T01:15:22.818Z,74.57
2023-04-14T01:17:49.574Z,75.24
2023-04-14T01:20:16.103Z,75.35
2023-04-14T01:22:42.522Z,75.28
2023-04-14T01:25:09.269Z,75.33
2023-04-14T01:27:36.037Z,75.24
2023-04-14T01:30:02.857Z,75.50
2023-04-14T01:32:29.735Z,76.19
2023-04-14T01:34:56.562Z,76.26
2023-04-14T01:37:24.481Z,76.95
2023-04-14T01:39:52.351Z,76.63
2023-04-14T01:42:21.509Z,76.92
2023-04-14T01:44:51.448Z,77.02
2023-04-14T01:47:18.364Z,77.13
2023-04-14T01:49:45.092Z,77.54
2023-04-14T01:52:11.772Z,77.54
2023-04-14T01:54:38.572Z,76.89
2023-04-14T01:57:05.603Z,76.96
2023-04-14T01:59:33.539Z,76.54
2023-04-14T02:02:00.100Z,76.34
2023-04-14T02:04:26.848Z,76.68
2023-04-14T02:06:53.569Z,77.08
2023-04-14T02:09:20.144Z,76.62
2023-04-14T02:11:46.755Z,77.04
2023-04-14T02:14:13.530Z,77.20
2023-04-14T02:16:41.479Z,77.20
2023-04-14T02:19:08.210Z,76.73
2023-04-14T02:21:34.687Z,76.25
2023-04-14T02:24:02.135Z,76.26
2023-04-14T02:26:28.594Z,77.00
2023-04-14T02:28:55.311Z,77.44
2023-04-14T02:31:22.642Z,77.42
2023-04-14T02:33:49.198Z,77.09
2023-04-14T02:36:19.361Z,77.39
2023-04-14T02:38:47.573Z,77.00
2023-04-14T02:41:14.053Z,76.57
2023-04-14T02:43:40.546Z,76.25
2023-04-14T02:46:07.344Z,75.70
2023-04-14T02:48:33.852Z,75.67
2023-04-14T02:51:02.622Z,75.66
2023-04-14T02:53:29.064Z,75.65
2023-04-14T02:55:55.600Z,75.70
2023-04-14T02:58:22.136Z,75.06
2023-04-14T03:00:48.528Z,74.93
2023-04-14T03:03:15.432Z,74.95
2023-04-14T03:05:44.777Z,74.73
2023-04-14T03:08:12.333Z,75.00
2023-04-14T03:10:38.932Z,75.92
2023-04-14T03:13:07.813Z,75.44
2023-04-14T03:15:34.305Z,75.60
2023-04-14T03:18:00.961Z,75.87
2023-04-14T03:20:27.663Z,76.14
2023-04-14T03:22:54.125Z,76.08
2023-04-14T03:25:20.724Z,77.26
2023-04-14T03:27:48.419Z,77.36
2023-04-14T03:30:15.311Z,77.34
2023-04-14T03:32:42.206Z,77.36
2023-04-14T03:35:08.945Z,77.52
2023-04-14T03:37:35.752Z,77.53
2023-04-14T03:40:02.477Z,77.62
2023-04-14T03:42:29.117Z,78.24
2023-04-14T03:44:55.710Z,78.26
2023-04-14T03:47:22.370Z,77.50
2023-04-14T03:49:49.866Z,77.58
2023-04-14T03:52:16.677Z,78.09
2023-04-14T03:54:43.127Z,77.83
2023-04-14T03:57:11.012Z,78.23
2023-04-14T03:59:37.728Z,77.82
2023-04-14T04:02:04.358Z,77.80
2023-04-14T04:04:33.851Z,77.57
2023-04-14T04:07:00.357Z,77.07
2023-04-14T04:09:27.245Z,76.91
2023-04-14T04:11:53.795Z,77.20
2023-04-14T04:14:20.303Z,77.04
2023-04-14T04:16:46.850Z,77.53
2023-04-14T04:19:15.809Z,77.69
2023-04-14T04:21:42.619Z,77.55
2023-04-14T04:24:09.055Z,77.42
2023-04-14T04:26:36.478Z,77.02
2023-04-14T04:29:05.645Z,77.05
2023-04-14T04:31:32.649Z,76.36
2023-04-14T04:33:59.468Z,76.55
2023-04-14T04:36:26.097Z,76.50
2023-04-14T04:38:52.683Z,76.17
2023-04-14T04:41:19.454Z,76.05
2023-04-14T04:43:45.925Z,75.93
2023-04-14T04:46:12.819Z,76.39
2023-04-14T04:48:42.866Z,75.73
2023-04-14T04:51:09.787Z,75.99
2023-04-14T04:53:36.392Z,76.56
2023-04-14T04:56:07.473Z,76.27
2023-04-14T04:58:33.957Z,76.32
2023-04-14T05:01:01.029Z,76.42
2023-04-14T05:03:27.888Z,75.71
2023-04-14T05:05:54.519Z,75.82
2023-04-14T05:08:21.205Z,75.92
2023-04-14T05:10:47.911Z,76.37
2023-04-14T05:13:14.518Z,76.45
2023-04-14T05:15:41.045Z,77.08
2023-04-14T05:18:08.006Z,76.75
2023-04-14T05:20:36.681Z,77.25
2023-04-14T05:23:03.260Z,76.64
2023-04-14T05:25:30.721Z,76.78
2023-04-14T05:27:57.294Z,76.74
2023-04-14T05:30:23.852Z,76.22
2023-04-14T05:32:50.422Z,76.50
2023-04-14T05:35:16.891Z,76.11
2023-04-14T05:37:43.284Z,76.27
2023-04-14T05:40:09.851Z,76.52
2023-04-14T05:42:36.346Z,76.23
2023-04-14T05:45:02.748Z,75.58
2023-04-14T05:47:29.168Z,75.75
2023-04-14T05:49:55.881Z,75.89
2023-04-14T05:52:22.657Z,76.05
2023-04-14T05:54:49.148Z,75.67
2023-04-14T05:57:15.597Z,76.18
2023-04-14T05:59:42.075Z,75.76
2023-04-14T06:02:09.474Z,75.68
2023-04-14T06:04:36.071Z,75.74
2023-04-14T06:07:03.059Z,75.58
2023-04-14T06:09:29.547Z,75.24
2023-04-14T06:11:56.999Z,75.13
2023-04-14T06:14:23.730Z,75.43
2023-04-14T06:16:50.696Z,75.55
2023-04-14T06:19:17.342Z,75.28
2023-04-14T06:21:43.727Z,75.34
2023-04-14T06:24:10.122Z,75.10
2023-04-14T06:26:36.494Z,74.51
2023-04-14T06:29:03.780Z,73.99
2023-04-14T06:31:30.436Z,73.48
2023-04-14T06:33:57.101Z,73.50
2023-04-14T06:36:23.457Z,73.49
2023-04-14T06:38:51.573Z,73.12
2023-04-14T06:41:17.984Z,73.26
2023-04-14T06:43:44.509Z,72.81
2023-04-14T06:46:11.209Z,72.46
2023-04-14T06:48:37.797Z,72.22
2023-04-14T06:51:06.271Z,72.75
2023-04-14T06:53:32.805Z,72.07
2023-04-14T06:55:59.641Z,71.86
2023-04-14T06:58:26.316Z,71.41
2023-04-14T07:00:52.809Z,71.81
2023-04-14T07:03:21.549Z,70.96
2023-04-14T07:05:48.003Z,69.91
2023-04-14T07:08:14.698Z,69.58
2023-04-14T07:10:41.283Z,68.35
2023-04-14T07:13:07.670Z,68.43
2023-04-14T07:15:34.172Z,68.48
2023-04-14T07:18:00.941Z,67.91
2023-04-14T07:20:28.790Z,68.05
2023-04-14T07:22:55.166Z,67.42
2023-04-14T07:25:21.520Z,67.06
2023-04-14T07:28:02.170Z,67.52
2023-04-14T07:30:29.961Z,68.15
2023-04-14T07:32:56.455Z,68.36
2023-04-14T07:35:22.891Z,68.55
2023-04-14T07:37:49.521Z,68.42
2023-04-14T07:40:15.982Z,66.33
2023-04-14T07:42:42.495Z,66.25
2023-04-14T07:45:08.999Z,66.17
2023-04-14T07:47:35.393Z,65.08
2023-04-14T07:50:02.149Z,64.74
2023-04-14T07:52:31.966Z,63.54
2023-04-14T07:54:58.336Z,62.50
2023-04-14T07:57:25.072Z,62.38
2023-04-14T08:02:32.912Z,62.01
2023-04-14T08:04:59.364Z,61.51
2023-04-14T08:07:26.074Z,60.28
2023-04-14T08:09:52.792Z,59.94
2023-04-14T08:12:20.493Z,59.33
2023-04-14T08:14:46.990Z,58.07
2023-04-14T08:17:13.411Z,58.28
2023-04-14T08:19:39.794Z,57.28
2023-04-14T08:22:06.285Z,56.47
2023-04-14T08:24:32.915Z,56.78
2023-04-14T08:27:01.737Z,55.78
2023-04-14T08:29:28.075Z,54.30
2023-04-14T08:31:54.557Z,54.43
2023-04-14T08:34:28.092Z,53.95
2023-04-14T08:36:55.341Z,54.99
2023-04-14T08:39:21.798Z,54.71
2023-04-14T08:41:48.419Z,51.13
2023-04-14T08:44:14.918Z,49.75
2023-04-14T08:46:41.533Z,52.81
2023-04-14T08:49:08.064Z,49.40
2023-04-14T08:51:34.476Z,49.65
2023-04-14T08:54:02.214Z,48.61
2023-04-14T08:56:28.969Z,50.03
2023-04-14T08:58:55.491Z,50.34
2023-04-14T09:01:22.231Z,48.76
2023-04-14T09:03:48.945Z,51.27
2023-04-14T09:06:15.516Z,49.46
2023-04-14T09:08:44.791Z,48.54
2023-04-14T09:11:11.220Z,47.42
2023-04-14T09:13:37.605Z,48.84
2023-04-14T09:16:04.486Z,46.55
2023-04-14T09:18:30.886Z,45.25
2023-04-14T09:21:30.185Z,44.47
2023-04-14T09:23:46.513Z,47.26
2023-04-14T09:26:12.998Z,45.81
2023-04-14T09:28:41.559Z,47.26
2023-04-14T09:31:08.013Z,46.27
2023-04-14T09:33:34.494Z,45.93
2023-04-14T09:36:00.935Z,46.48
2023-04-14T09:38:27.557Z,45.27
2023-04-14T09:40:56.864Z,42.66
2023-04-14T09:43:23.824Z,42.53
2023-04-14T09:45:50.240Z,43.64
2023-04-14T09:48:16.788Z,43.81
2023-04-14T09:50:43.470Z,47.41
2023-04-14T09:53:09.916Z,45.36
2023-04-14T09:55:36.325Z,41.49
2023-04-14T09:58:02.671Z,41.39
2023-04-14T10:00:31.295Z,41.90
2023-04-14T10:02:58.253Z,43.98
2023-04-14T10:05:24.790Z,41.77
2023-04-14T10:07:51.487Z,41.09
2023-04-14T10:10:18.015Z,41.48
2023-04-14T10:12:44.501Z,42.76
2023-04-14T10:15:10.875Z,40.95
2023-04-14T10:17:37.239Z,40.81
2023-04-14T10:20:03.601Z,42.00
2023-04-14T10:22:29.982Z,43.18
2023-04-14T10:24:56.456Z,39.47
2023-04-14T10:27:23.938Z,40.38
2023-04-14T10:29:50.309Z,42.20
2023-04-14T10:32:19.028Z,41.96
2023-04-14T10:34:45.659Z,43.30
2023-04-14T10:37:12.572Z,43.62
2023-04-14T10:39:39.441Z,43.72
2023-04-14T10:42:05.962Z,46.68
2023-04-14T10:44:32.356Z,44.52
2023-04-14T10:46:58.845Z,46.41
2023-04-14T10:49:27.442Z,46.26
2023-04-14T10:51:54.491Z,43.90
2023-04-14T10:54:21.029Z,43.50
2023-04-14T10:56:47.971Z,43.35
2023-04-14T10:59:14.630Z,42.48
2023-04-14T11:01:41.028Z,39.83
2023-04-14T11:04:08.886Z,42.25
2023-04-14T11:06:35.678Z,42.15
2023-04-14T11:09:04.403Z,40.91
2023-04-14T11:11:30.897Z,38.99
2023-04-14T11:13:57.281Z,37.61
2023-04-14T11:16:24.635Z,38.57
2023-04-14T11:18:51.517Z,40.55
2023-04-14T11:21:18.023Z,41.42
2023-04-14T11:23:44.517Z,40.53
2023-04-14T11:26:15.016Z,41.48
2023-04-14T11:28:41.380Z,40.68
2023-04-14T11:31:07.732Z,42.31
2023-04-14T11:33:34.505Z,42.57
2023-04-14T11:36:00.963Z,43.21
2023-04-14T11:38:27.334Z,42.76
2023-04-14T11:40:53.725Z,41.23
2023-04-14T11:43:22.801Z,41.67
2023-04-14T11:45:49.415Z,41.62
2023-04-14T11:48:15.880Z,41.76
2023-04-14T11:50:44.652Z,41.95
2023-04-14T11:53:13.226Z,43.60
2023-04-14T11:55:39.648Z,41.07
2023-04-14T11:58:06.003Z,43.22
2023-04-14T12:00:32.444Z,41.93
2023-04-14T12:02:59.777Z,40.31
2023-04-14T12:05:26.409Z,40.76
2023-04-14T12:07:52.857Z,43.47
2023-04-14T12:10:19.203Z,41.17
2023-04-14T12:12:45.667Z,42.24
2023-04-14T12:15:12.107Z,42.58
2023-04-14T12:17:38.651Z,41.41
2023-04-14T12:20:05.106Z,41.26
2023-04-14T12:22:31.943Z,41.64
2023-04-14T12:24:58.388Z,40.28
2023-04-14T12:27:27.982Z,39.92
2023-04-14T12:29:54.560Z,43.07
2023-04-14T12:32:21.033Z,41.72
2023-04-14T12:34:54.789Z,38.82
2023-04-14T12:37:21.329Z,39.72
2023-04-14T12:39:47.843Z,40.13
2023-04-14T12:42:15.997Z,39.73
2023-04-14T12:44:42.398Z,44.11
2023-04-14T12:47:08.910Z,39.46
2023-04-14T12:49:35.561Z,38.14
2023-04-14T12:52:02.218Z,39.05
2023-04-14T12:54:28.820Z,37.70
2023-04-14T12:56:55.588Z,38.28
2023-04-14T12:59:24.604Z,41.09
2023-04-14T13:01:51.137Z,37.39
2023-04-14T13:04:17.939Z,38.19
2023-04-14T13:06:47.569Z,36.93
2023-04-14T13:09:22.716Z,38.97
2023-04-14T13:11:49.209Z,39.46
2023-04-14T13:14:18.113Z,38.19
2023-04-14T13:16:45.475Z,38.04
2023-04-14T13:19:12.144Z,37.23
2023-04-14T13:21:40.878Z,37.08
2023-04-14T13:24:07.268Z,36.18
2023-04-14T13:26:33.782Z,34.76
2023-04-14T13:29:01.311Z,35.83
2023-04-14T13:31:29.590Z,35.09
2023-04-14T13:33:56.209Z,34.17
2023-04-14T13:36:22.541Z,38.66
2023-04-14T13:38:49.390Z,36.14
2023-04-14T13:41:15.978Z,37.35
2023-04-14T13:43:44.612Z,37.69
2023-04-14T13:46:11.230Z,38.46
2023-04-14T13:48:37.800Z,39.89
2023-04-14T13:51:04.662Z,36.82
2023-04-14T13:53:32.452Z,37.54
2023-04-14T13:55:59.091Z,37.34
2023-04-14T13:58:25.879Z,36.35
2023-04-14T14:00:52.460Z,36.26
2023-04-14T14:03:21.263Z,35.77
2023-04-14T14:05:47.994Z,37.28
2023-04-14T14:08:15.639Z,38.94
2023-04-14T14:10:42.133Z,38.28
2023-04-14T14:13:08.978Z,37.92
2023-04-14T14:15:35.433Z,35.61
2023-04-14T14:18:02.876Z,34.89
2023-04-14T14:20:29.366Z,35.65
2023-04-14T14:22:57.370Z,35.75
2023-04-14T14:25:27.289Z,35.20
2023-04-14T14:27:53.727Z,34.91
2023-04-14T14:30:20.102Z,34.55
2023-04-14T14:32:46.779Z,34.62
2023-04-14T14:35:16.032Z,33.87
2023-04-14T14:37:43.064Z,32.81
2023-04-14T14:40:11.496Z,31.99
2023-04-14T14:42:37.823Z,33.26
2023-04-14T14:45:04.554Z,31.78
2023-04-14T14:47:33.154Z,32.93
2023-04-14T14:50:01.194Z,33.80
2023-04-14T14:52:32.160Z,34.05
2023-04-14T14:55:00.759Z,34.29
2023-04-14T14:57:27.131Z,33.88
2023-04-14T14:59:56.392Z,33.94
2023-04-14T15:02:23.626Z,33.88
2023-04-14T15:04:50.293Z,32.73
2023-04-14T15:07:16.708Z,32.05
2023-04-14T15:09:43.105Z,33.97
2023-04-14T15:12:09.727Z,34.32
2023-04-14T15:14:38.292Z,31.94
2023-04-14T15:17:06.854Z,33.36
2023-04-14T15:19:33.273Z,35.39
2023-04-14T15:22:00.903Z,35.63
2023-04-14T15:24:27.246Z,35.37
2023-04-14T15:26:54.082Z,32.10
2023-04-14T15:29:20.758Z,34.20
2023-04-14T15:31:47.919Z,35.54
2023-04-14T15:34:14.499Z,34.32
2023-04-14T15:36:42.047Z,32.70
2023-04-14T15:39:11.773Z,32.06
2023-04-14T15:41:43.852Z,33.16
2023-04-14T15:44:10.355Z,35.00
2023-04-14T15:46:36.961Z,35.57
2023-04-14T15:49:04.630Z,33.91
2023-04-14T15:51:34.138Z,35.60
2023-04-14T15:54:04.205Z,34.52
2023-04-14T15:56:33.003Z,32.74
2023-04-14T15:59:00.020Z,34.46
2023-04-14T16:01:26.742Z,33.95
2023-04-14T16:03:54.413Z,33.86
2023-04-14T16:06:25.477Z,33.82
2023-04-14T16:08:51.859Z,33.53
2023-04-14T16:11:19.752Z,34.43
2023-04-14T16:13:46.279Z,34.43
2023-04-14T16:16:12.738Z,34.95
2023-04-14T16:18:40.537Z,35.65
2023-04-14T16:21:07.026Z,35.92
2023-04-14T16:23:33.745Z,37.33
2023-04-14T16:26:02.851Z,39.78
2023-04-14T16:28:29.483Z,39.80
2023-04-14T16:30:56.001Z,40.79
2023-04-14T16:33:22.417Z,39.73
2023-04-14T16:35:53.008Z,40.93
2023-04-14T16:38:26.859Z,40.58
2023-04-14T16:40:55.561Z,40.32
2023-04-14T16:43:24.878Z,40.89
2023-04-14T16:45:51.684Z,42.13
2023-04-14T16:48:19.990Z,41.92
2023-04-14T16:50:46.733Z,41.97
2023-04-14T16:53:13.365Z,41.89
2023-04-14T16:55:41.221Z,42.36
2023-04-14T16:58:07.995Z,42.47
2023-04-14T17:00:34.771Z,41.04
2023-04-14T17:03:03.582Z,42.06
2023-04-14T17:05:31.247Z,42.70
2023-04-14T17:07:57.759Z,42.35
2023-04-14T17:10:24.937Z,41.71
2023-04-14T17:12:51.709Z,41.47
2023-04-14T17:15:18.097Z,42.36
2023-04-14T17:17:47.289Z,42.25
2023-04-14T17:20:13.746Z,42.80
2023-04-14T17:22:41.497Z,42.17
2023-04-14T17:25:07.840Z,42.31
2023-04-14T17:27:34.448Z,44.31
2023-04-14T17:30:01.433Z,43.11
2023-04-14T17:32:27.999Z,43.58
2023-04-14T17:34:54.499Z,44.73
2023-04-14T17:37:23.243Z,44.23
2023-04-14T17:39:49.840Z,44.75
2023-04-14T17:42:16.192Z,45.27
2023-04-14T17:44:42.693Z,45.16
2023-04-14T17:47:09.025Z,47.01
2023-04-14T17:49:35.420Z,46.87
2023-04-14T17:52:01.786Z,48.79
2023-04-14T17:54:28.490Z,47.91
2023-04-14T17:56:54.976Z,47.89
2023-04-14T17:59:21.447Z,47.98
2023-04-14T18:01:47.948Z,46.37
2023-04-14T18:04:14.478Z,48.92
2023-04-14T18:06:40.989Z,47.89
2023-04-14T18:09:07.345Z,47.48
2023-04-14T18:11:34.049Z,47.95
2023-04-14T18:14:00.720Z,48.59
2023-04-14T18:16:27.337Z,49.67
2023-04-14T18:18:53.689Z,50.53
2023-04-14T18:21:20.040Z,51.31
2023-04-14T18:24:47.888Z,53.33
2023-04-14T18:26:32.750Z,52.62
2023-04-14T18:28:59.615Z,52.99
2023-04-14T18:31:26.453Z,53.71
2023-04-14T18:33:52.878Z,53.82
2023-04-14T18:36:19.226Z,53.23
2023-04-14T18:38:45.570Z,53.63
2023-04-14T18:41:11.958Z,53.59
2023-04-14T18:43:38.300Z,53.75
2023-04-14T18:46:04.721Z,53.88
2023-04-14T18:48:31.102Z,52.78
2023-04-14T19:05:11.850Z,56.51
2023-04-14T19:07:38.224Z,55.90
2023-04-14T19:10:04.795Z,55.21
2023-04-14T19:12:31.224Z,55.20
2023-04-14T19:14:57.713Z,55.55
2023-04-14T19:17:24.152Z,56.23
2023-04-14T19:19:50.690Z,56.43
2023-04-14T19:22:17.539Z,57.42
2023-04-14T19:24:43.914Z,57.16
2023-04-14T19:27:10.472Z,57.48
2023-04-14T19:29:36.825Z,57.60
2023-04-14T19:32:03.239Z,58.03
2023-04-14T19:34:29.988Z,58.06
2023-04-14T19:36:56.370Z,58.47
2023-04-14T19:39:22.828Z,58.61
2023-04-14T19:41:49.210Z,58.25
2023-04-14T19:44:15.831Z,58.84
2023-04-14T19:46:42.267Z,59.39
2023-04-14T19:49:08.704Z,59.95
2023-04-14T19:51:35.081Z,59.81
2023-04-14T19:54:01.455Z,60.37
2023-04-14T19:56:27.833Z,60.66
2023-04-14T19:58:54.527Z,62.34
2023-04-14T20:01:20.966Z,62.38
2023-04-14T20:04:07.828Z,61.51
2023-04-14T20:06:36.206Z,61.00
2023-04-14T20:09:02.786Z,62.42
2023-04-14T20:11:29.251Z,61.71
2023-04-14T20:13:55.694Z,61.98
2023-04-14T20:16:22.135Z,61.85
2023-04-14T20:18:48.770Z,62.45
2023-04-14T20:21:15.104Z,62.38
2023-04-14T20:23:41.565Z,62.73
2023-04-14T20:26:08.158Z,63.22
2023-04-14T20:28:34.609Z,61.84
2023-04-14T20:31:02.045Z,62.49
2023-04-14T20:33:28.390Z,62.86
2023-04-14T20:35:54.824Z,62.94
2023-04-14T20:38:21.182Z,63.51
2023-04-14T20:40:47.522Z,63.89
2023-04-14T20:43:13.992Z,64.56
2023-04-14T20:45:40.443Z,63.86
2023-04-14T20:48:07.537Z,61.85
2023-04-14T20:50:34.441Z,61.34
2023-04-14T20:53:00.821Z,63.60
2023-04-14T20:55:27.240Z,63.71
2023-04-14T20:57:54.605Z,63.98
2023-04-14T21:00:20.999Z,63.32
2023-04-14T21:02:47.534Z,62.22
2023-04-14T21:05:14.528Z,62.94
2023-04-14T21:07:41.237Z,64.34
2023-04-14T21:10:07.758Z,65.24
2023-04-14T21:12:36.041Z,64.68
2023-04-14T21:15:47.837Z,60.42
2023-04-14T21:17:52.451Z,59.18
2023-04-14T21:20:18.981Z,62.31
2023-04-14T21:22:45.432Z,60.99
2023-04-14T21:25:11.976Z,60.94
2023-04-14T21:27:38.586Z,61.64
2023-04-14T21:30:05.165Z,60.16
2023-04-14T21:32:31.653Z,60.55
2023-04-14T21:34:58.384Z,62.82
2023-04-14T21:37:26.925Z,63.53
2023-04-14T21:39:53.292Z,63.42
2023-04-14T21:42:19.759Z,63.40
2023-04-14T21:44:46.168Z,63.23
2023-04-14T21:47:12.996Z,63.32
2023-04-14T21:49:39.412Z,64.08
2023-04-14T21:52:05.958Z,63.85
2023-04-14T21:54:32.337Z,63.39
2023-04-14T21:56:59.700Z,63.59
2023-04-14T21:59:26.468Z,64.04
2023-04-14T22:01:52.892Z,64.03
2023-04-14T22:04:28.809Z,64.54
2023-04-14T22:07:01.318Z,64.39
2023-04-14T22:09:27.672Z,64.08
2023-04-14T22:11:54.350Z,64.05
2023-04-14T22:14:21.378Z,64.13
2023-04-14T22:16:48.041Z,64.38
2023-04-14T22:19:14.461Z,64.08
2023-04-14T22:21:41.148Z,63.76
2023-04-14T22:24:07.563Z,64.62
2023-04-14T22:26:33.951Z,65.34
2023-04-14T22:29:00.984Z,65.10
2023-04-14T22:31:27.785Z,64.85
2023-04-14T22:33:54.296Z,64.48
2023-04-14T22:36:20.817Z,64.13
2023-04-14T22:38:47.506Z,64.92
2023-04-14T22:41:13.899Z,64.22
2023-04-14T22:43:40.303Z,64.10
2023-04-14T22:46:06.691Z,64.45
2023-04-14T22:48:33.982Z,65.26
2023-04-14T22:51:00.463Z,66.44
2023-04-14T22:53:27.057Z,66.00
2023-04-14T22:55:53.493Z,67.43
2023-04-14T22:58:20.762Z,66.82
2023-04-14T23:00:47.131Z,67.82
2023-04-14T23:03:13.988Z,67.64
2023-04-14T23:05:40.714Z,66.79
2023-04-14T23:08:07.199Z,65.69
2023-04-14T23:10:33.594Z,65.18
2023-04-14T23:13:02.495Z,65.11
2023-04-14T23:15:28.955Z,64.16
2023-04-14T23:17:55.416Z,64.25
2023-04-14T23:20:21.997Z,64.16
2023-04-14T23:22:48.684Z,65.09
2023-04-14T23:25:15.146Z,65.58
2023-04-14T23:27:41.586Z,65.90
2023-04-14T23:30:07.974Z,64.35
2023-04-14T23:32:34.853Z,64.48
2023-04-14T23:35:01.326Z,64.48
2023-04-14T23:37:27.759Z,65.81
2023-04-14T23:39:54.228Z,66.06
2023-04-14T23:42:20.701Z,65.18
2023-04-14T23:44:47.383Z,66.69
2023-04-14T23:47:13.789Z,66.92
2023-04-14T23:49:40.253Z,66.40
2023-04-14T23:52:07.681Z,66.37
2023-04-14T23:54:34.458Z,65.43
2023-04-14T23:57:00.895Z,65.28
2023-04-14T23:59:27.411Z,63.95
